Venus, Texas
Current Conditions -  °F | °C
As of 9:35 AM on Saturday 20 Dec 2014 (Local Time) from KJWY Reporting Station
Haze Haze  
Wind Chill: 43°   Ceiling: 500
Heat Index: 46°   Visibility: 3mi
Dew Point: 46°   Wind: 5mph
Humidity: 100%   Direction: 20°NNE
Pressure: 30.25"   Gusts: NA
Location:  32.43°N, 97.1°W
Report Text: KJWY 201535Z AUTO 02004KT 3SM BR OVC005 08/08 A3025 RMK AO2 T00750075
Loading
Personal Weather Stations






























Interactive Weather Map New forecast layout! Learn more

10-Day Weather Forecast

Advertisements
Track Severe Weather on mobile